createdAt,value
2019-02-20T00:00:46.383Z,96.50
2019-02-20T00:03:19.218Z,96.60
2019-02-20T00:05:51.901Z,96.90
2019-02-20T00:08:24.401Z,96.50
2019-02-20T00:10:57.246Z,96.30
2019-02-20T00:13:30.074Z,96.20
2019-02-20T00:16:02.583Z,96.00
2019-02-20T00:18:36.091Z,96.40
2019-02-20T00:21:08.820Z,97.70
2019-02-20T00:23:41.830Z,97.80
2019-02-20T00:26:14.903Z,97.90
2019-02-20T00:28:47.992Z,98.70
2019-02-20T00:31:20.518Z,97.90
2019-02-20T00:33:53.487Z,97.80
2019-02-20T00:36:26.290Z,97.60
2019-02-20T00:38:58.859Z,97.50
2019-02-20T00:41:31.555Z,97.80
2019-02-20T00:44:37.383Z,99.20
2019-02-20T00:47:34.106Z,98.10
2019-02-20T00:50:06.800Z,98.20
2019-02-20T00:52:49.802Z,98.90
2019-02-20T00:55:21.414Z,98.80
2019-02-20T00:57:55.897Z,98.60
2019-02-20T01:00:29.064Z,97.90
2019-02-20T01:03:02.058Z,97.50
2019-02-20T01:05:34.648Z,97.50
2019-02-20T01:08:07.868Z,97.60
2019-02-20T01:10:41.109Z,99.00
2019-02-20T01:13:14.189Z,99.30
2019-02-20T01:15:47.164Z,98.80
2019-02-20T01:18:19.858Z,98.90
2019-02-20T01:20:52.944Z,99.00
2019-02-20T01:23:25.639Z,98.40
2019-02-20T01:25:58.058Z,99.10
2019-02-20T01:28:32.833Z,98.50
2019-02-20T01:31:05.607Z,99.10
2019-02-20T01:33:39.362Z,98.40
2019-02-20T01:36:12.191Z,98.80
2019-02-20T01:38:44.774Z,99.30
2019-02-20T01:41:18.135Z,99.90
2019-02-20T01:43:51.962Z,99.90
2019-02-20T01:46:24.559Z,99.90
2019-02-20T01:48:57.794Z,99.90
2019-02-20T01:51:30.719Z,99.90
2019-02-20T01:54:03.645Z,99.90
2019-02-20T01:56:36.683Z,99.90
2019-02-20T01:59:09.471Z,99.90
2019-02-20T02:01:42.141Z,99.90
2019-02-20T02:04:15.200Z,99.90
2019-02-20T02:06:47.915Z,99.90
2019-02-20T02:09:20.931Z,99.90
2019-02-20T02:11:53.477Z,99.90
2019-02-20T02:14:26.321Z,99.90
2019-02-20T02:16:58.896Z,99.90
2019-02-20T02:19:32.469Z,99.90
2019-02-20T02:22:05.503Z,99.90
2019-02-20T02:24:38.438Z,99.90
2019-02-20T02:27:10.717Z,99.90
2019-02-20T02:29:47.018Z,99.90
2019-02-20T02:32:19.765Z,99.90
2019-02-20T02:34:52.541Z,99.90
2019-02-20T02:37:25.155Z,99.90
2019-02-20T02:39:58.527Z,99.90
2019-02-20T02:42:31.363Z,99.90
2019-02-20T02:45:04.084Z,99.90
2019-02-20T02:47:37.023Z,99.90
2019-02-20T02:50:10.357Z,99.90
2019-02-20T02:52:43.045Z,99.90
2019-02-20T02:55:15.367Z,99.90
2019-02-20T02:57:47.929Z,99.90
2019-02-20T03:00:20.712Z,99.90
2019-02-20T03:02:53.524Z,99.90
2019-02-20T03:05:26.410Z,99.90
2019-02-20T03:07:59.173Z,99.90
2019-02-20T03:10:32.013Z,99.90
2019-02-20T03:13:04.502Z,99.90
2019-02-20T03:15:37.292Z,99.90
2019-02-20T03:18:10.071Z,99.90
2019-02-20T03:20:43.405Z,99.90
2019-02-20T03:23:16.258Z,99.90
2019-02-20T03:25:49.013Z,99.90
2019-02-20T03:28:22.351Z,99.90
2019-02-20T03:30:55.194Z,99.90
2019-02-20T03:33:28.619Z,99.90
2019-02-20T03:36:01.724Z,99.50
2019-02-20T03:38:33.985Z,99.50
2019-02-20T03:41:06.603Z,99.90
2019-02-20T03:43:39.715Z,99.90
2019-02-20T03:46:12.444Z,99.90
2019-02-20T03:48:45.330Z,99.90
2019-02-20T03:51:18.309Z,99.90
2019-02-20T03:53:52.445Z,99.90
2019-02-20T03:56:25.303Z,99.90
2019-02-20T03:58:57.973Z,99.90
2019-02-20T04:01:30.938Z,99.90
2019-02-20T04:04:03.748Z,99.90
2019-02-20T04:06:37.671Z,99.90
2019-02-20T04:09:10.227Z,99.90
2019-02-20T04:11:42.588Z,99.90
2019-02-20T04:14:14.917Z,99.90
2019-02-20T04:16:47.397Z,99.90
2019-02-20T04:19:20.462Z,98.90
2019-02-20T04:21:53.300Z,98.50
2019-02-20T04:24:26.637Z,98.10
2019-02-20T04:26:59.269Z,97.80
2019-02-20T04:29:31.763Z,98.30
2019-02-20T04:32:04.361Z,99.90
2019-02-20T04:34:37.414Z,99.10
2019-02-20T04:37:10.318Z,98.10
2019-02-20T04:39:42.972Z,97.50
2019-02-20T04:42:15.737Z,97.00
2019-02-20T04:44:48.583Z,96.70
2019-02-20T04:47:21.390Z,96.30
2019-02-20T04:49:54.784Z,96.40
2019-02-20T04:52:27.602Z,97.10
2019-02-20T04:55:00.082Z,96.30
2019-02-20T04:57:32.855Z,96.90
2019-02-20T05:00:05.521Z,97.60
2019-02-20T05:02:39.139Z,98.70
2019-02-20T05:05:12.390Z,98.90
2019-02-20T05:07:45.118Z,98.60
2019-02-20T05:10:17.485Z,98.00
2019-02-20T05:12:50.349Z,97.70
2019-02-20T05:15:22.996Z,98.20
2019-02-20T05:17:55.600Z,98.80
2019-02-20T05:20:27.976Z,98.50
2019-02-20T05:23:00.818Z,98.10
2019-02-20T05:25:33.443Z,97.80
2019-02-20T05:28:06.535Z,98.00
2019-02-20T05:30:39.548Z,98.50
2019-02-20T05:33:12.629Z,97.40
2019-02-20T05:35:45.116Z,96.70
2019-02-20T05:38:17.609Z,98.40
2019-02-20T05:40:50.593Z,99.20
2019-02-20T05:43:23.109Z,99.90
2019-02-20T05:45:55.688Z,99.90
2019-02-20T05:48:27.981Z,99.90
2019-02-20T05:51:00.505Z,99.90
2019-02-20T05:53:33.355Z,99.90
2019-02-20T05:56:06.276Z,99.90
2019-02-20T05:58:39.006Z,99.90
2019-02-20T06:01:12.038Z,99.90
2019-02-20T06:03:44.831Z,99.90
2019-02-20T06:06:17.526Z,99.90
2019-02-20T06:08:49.951Z,99.30
2019-02-20T06:11:22.556Z,98.40
2019-02-20T06:13:55.255Z,98.20
2019-02-20T06:16:27.852Z,99.60
2019-02-20T06:19:01.130Z,99.90
2019-02-20T06:21:33.732Z,99.90
2019-02-20T06:24:06.583Z,99.90
2019-02-20T06:26:43.351Z,99.90
2019-02-20T06:29:15.835Z,99.90
2019-02-20T06:31:48.272Z,99.90
2019-02-20T06:34:21.198Z,99.90
2019-02-20T06:36:54.327Z,99.90
2019-02-20T06:39:27.051Z,99.80
2019-02-20T06:41:59.584Z,99.00
2019-02-20T06:44:32.401Z,97.70
2019-02-20T06:47:05.197Z,97.90
2019-02-20T06:49:38.130Z,97.80
2019-02-20T06:52:11.227Z,98.00
2019-02-20T06:54:53.320Z,97.60
2019-02-20T06:57:19.034Z,97.00
2019-02-20T06:59:51.991Z,97.40
2019-02-20T07:02:24.735Z,97.80
2019-02-20T07:05:41.998Z,97.40
2019-02-20T07:08:59.959Z,97.10
2019-02-20T07:12:18.518Z,96.60
2019-02-20T07:15:32.675Z,97.00
2019-02-20T07:18:33.447Z,98.80
2019-02-20T07:21:31.792Z,99.90
2019-02-20T07:24:48.808Z,99.90
2019-02-20T07:28:00.308Z,99.90
2019-02-20T07:30:32.726Z,99.30
2019-02-20T07:33:05.356Z,97.30
2019-02-20T07:35:38.151Z,96.20
2019-02-20T07:38:11.081Z,95.80
2019-02-20T07:40:43.531Z,96.30
2019-02-20T07:43:16.050Z,95.70
2019-02-20T07:45:49.326Z,95.40
2019-02-20T07:48:22.562Z,95.30
2019-02-20T07:50:55.280Z,95.70
2019-02-20T07:53:28.340Z,95.80
2019-02-20T07:56:01.127Z,95.80
2019-02-20T07:58:33.770Z,96.00
2019-02-20T08:01:06.573Z,96.00
2019-02-20T08:03:39.355Z,95.70
2019-02-20T08:06:11.976Z,95.70
2019-02-20T08:08:44.742Z,97.00
2019-02-20T08:11:17.375Z,97.50
2019-02-20T08:13:50.495Z,98.10
2019-02-20T08:16:23.077Z,98.90
2019-02-20T08:18:55.745Z,99.00
2019-02-20T08:21:28.213Z,99.00
2019-02-20T08:24:02.879Z,98.00
2019-02-20T08:26:37.151Z,96.80
2019-02-20T08:29:09.613Z,96.70
2019-02-20T08:31:42.632Z,96.10
2019-02-20T08:34:15.415Z,96.00
2019-02-20T08:36:48.058Z,95.50
2019-02-20T08:39:20.165Z,95.60
2019-02-20T08:41:53.147Z,95.60
2019-02-20T08:44:25.483Z,95.10
2019-02-20T08:46:58.383Z,95.00
2019-02-20T08:49:31.121Z,94.70
2019-02-20T08:52:03.583Z,94.40
2019-02-20T08:54:36.339Z,94.50
2019-02-20T08:57:08.846Z,94.50
2019-02-20T08:59:41.428Z,94.50
2019-02-20T09:02:14.548Z,94.30
2019-02-20T09:04:47.142Z,94.50
2019-02-20T09:07:19.811Z,94.80
2019-02-20T09:09:52.557Z,95.00
2019-02-20T09:12:25.198Z,95.20
2019-02-20T09:14:57.731Z,95.30
2019-02-20T09:17:30.687Z,95.50
2019-02-20T09:20:03.341Z,95.20
2019-02-20T09:22:36.143Z,95.10
2019-02-20T09:25:09.476Z,95.50
2019-02-20T09:27:42.507Z,95.60
2019-02-20T09:30:27.941Z,94.80
2019-02-20T09:32:53.081Z,94.60
2019-02-20T09:35:25.902Z,94.50
2019-02-20T09:37:58.427Z,94.60
2019-02-20T09:40:31.053Z,95.00
2019-02-20T09:43:03.908Z,94.80
2019-02-20T09:45:41.983Z,94.60
2019-02-20T09:48:11.646Z,94.60
2019-02-20T09:50:45.009Z,94.60
2019-02-20T09:53:17.494Z,94.40
2019-02-20T09:55:51.843Z,94.40
2019-02-20T09:58:24.273Z,94.60
2019-02-20T10:00:57.072Z,94.60
2019-02-20T10:03:30.082Z,94.50
2019-02-20T10:06:02.499Z,94.40
2019-02-20T10:08:35.970Z,94.20
2019-02-20T10:11:08.612Z,94.00
2019-02-20T10:13:41.339Z,94.00
2019-02-20T10:16:13.669Z,93.90
2019-02-20T10:18:46.237Z,93.80
2019-02-20T10:21:19.331Z,93.90
2019-02-20T10:23:52.318Z,93.70
2019-02-20T10:26:25.089Z,93.30
2019-02-20T10:28:57.775Z,93.20
2019-02-20T10:31:30.517Z,93.30
2019-02-20T10:34:02.924Z,93.30
2019-02-20T10:36:36.103Z,93.60
2019-02-20T10:39:09.950Z,94.10
2019-02-20T10:41:42.871Z,93.60
2019-02-20T10:44:15.749Z,93.00
2019-02-20T10:46:48.552Z,92.90
2019-02-20T10:49:20.847Z,93.30
2019-02-20T10:51:53.323Z,93.20
2019-02-20T10:54:25.760Z,93.30
2019-02-20T10:56:58.587Z,93.20
2019-02-20T10:59:31.932Z,92.90
2019-02-20T11:02:04.551Z,92.90
2019-02-20T11:04:37.617Z,93.10
2019-02-20T11:07:10.576Z,93.60
2019-02-20T11:09:43.421Z,93.20
2019-02-20T11:12:15.988Z,93.50
2019-02-20T11:14:49.395Z,93.50
2019-02-20T11:17:22.265Z,93.80
2019-02-20T11:19:54.851Z,94.00
2019-02-20T11:22:27.633Z,93.40
2019-02-20T11:25:00.380Z,93.40
2019-02-20T11:27:33.267Z,93.30
2019-02-20T11:30:07.229Z,93.40
2019-02-20T11:32:40.299Z,94.90
2019-02-20T11:35:13.151Z,94.00
2019-02-20T11:37:46.213Z,93.60
2019-02-20T11:40:18.943Z,93.30
2019-02-20T11:42:51.784Z,93.70
2019-02-20T11:45:25.126Z,94.20
2019-02-20T11:47:57.494Z,93.90
2019-02-20T11:50:30.271Z,93.50
2019-02-20T11:53:02.520Z,93.20
2019-02-20T11:55:34.719Z,93.30
2019-02-20T11:58:07.602Z,92.80
2019-02-20T12:00:40.577Z,92.80
2019-02-20T12:03:13.875Z,93.40
2019-02-20T12:05:46.723Z,93.10
2019-02-20T12:08:19.864Z,95.10
2019-02-20T12:10:52.313Z,95.10
2019-02-20T12:13:24.903Z,94.70
2019-02-20T12:15:57.563Z,93.90
2019-02-20T12:18:30.276Z,93.40
2019-02-20T12:21:02.706Z,92.90
2019-02-20T12:23:36.876Z,92.70
2019-02-20T12:26:09.161Z,92.70
2019-02-20T12:28:42.890Z,93.30
2019-02-20T12:31:19.952Z,93.90
2019-02-20T12:33:53.001Z,93.80
2019-02-20T12:36:25.843Z,94.00
2019-02-20T12:38:58.284Z,94.00
2019-02-20T12:41:30.922Z,94.40
2019-02-20T12:44:04.197Z,94.40
2019-02-20T12:46:37.050Z,94.90
2019-02-20T12:49:09.499Z,95.40
2019-02-20T12:51:42.354Z,95.40
2019-02-20T12:54:14.834Z,95.30
2019-02-20T12:56:47.436Z,95.10
2019-02-20T12:59:20.324Z,94.90
2019-02-20T13:01:53.716Z,94.90
2019-02-20T13:04:26.681Z,95.50
2019-02-20T13:06:59.557Z,95.90
2019-02-20T13:09:32.541Z,95.90
2019-02-20T13:12:04.832Z,96.00
2019-02-20T13:14:37.235Z,96.10
2019-02-20T13:17:10.248Z,96.60
2019-02-20T13:19:42.644Z,96.70
2019-02-20T13:22:16.740Z,96.80
2019-02-20T13:24:49.522Z,97.20
2019-02-20T13:27:23.020Z,97.20
2019-02-20T13:29:56.049Z,97.40
2019-02-20T13:32:28.891Z,96.90
2019-02-20T13:35:01.609Z,97.00
2019-02-20T13:37:34.207Z,97.20
2019-02-20T13:40:07.295Z,97.30
2019-02-20T13:42:39.957Z,97.60
2019-02-20T13:45:12.434Z,97.60
2019-02-20T13:47:44.900Z,97.60
2019-02-20T13:50:20.217Z,97.50
2019-02-20T13:52:52.830Z,97.80
2019-02-20T13:55:34.061Z,98.20
2019-02-20T13:57:59.469Z,98.10
2019-02-20T14:00:32.085Z,98.30
2019-02-20T14:03:04.591Z,98.20
2019-02-20T14:05:37.239Z,96.80
2019-02-20T14:08:09.834Z,96.70
2019-02-20T14:10:42.729Z,96.80
2019-02-20T14:13:15.965Z,96.00
2019-02-20T14:15:49.162Z,95.50
2019-02-20T14:18:21.957Z,93.60
2019-02-20T14:20:54.445Z,94.30
2019-02-20T14:23:26.514Z,95.10
2019-02-20T14:25:59.212Z,95.20
2019-02-20T14:28:33.051Z,94.00
2019-02-20T14:31:07.122Z,92.10
2019-02-20T14:33:39.380Z,91.90
2019-02-20T14:36:12.687Z,91.10
2019-02-20T14:38:45.813Z,90.20
2019-02-20T14:41:18.533Z,89.40
2019-02-20T14:43:51.180Z,88.10
2019-02-20T14:46:23.741Z,87.00
2019-02-20T14:48:57.067Z,90.00
2019-02-20T14:51:29.910Z,91.30
2019-02-20T14:54:02.374Z,89.70
2019-02-20T14:56:34.795Z,87.00
2019-02-20T14:59:07.429Z,86.80
2019-02-20T15:01:40.077Z,86.00
2019-02-20T15:04:13.027Z,82.50
2019-02-20T15:06:45.703Z,92.10
2019-02-20T15:09:18.031Z,88.90
2019-02-20T15:11:50.563Z,85.50
2019-02-20T15:14:23.195Z,84.50
2019-02-20T15:16:56.335Z,82.60
2019-02-20T15:19:29.279Z,81.30
2019-02-20T15:22:02.111Z,83.90
2019-02-20T15:24:35.189Z,73.00
2019-02-20T15:27:07.570Z,76.90
2019-02-20T15:29:39.992Z,76.60
2019-02-20T15:32:15.906Z,76.70
2019-02-20T15:34:48.355Z,77.70
2019-02-20T15:37:20.744Z,79.20
2019-02-20T15:39:53.794Z,74.20
2019-02-20T15:42:26.761Z,73.60
2019-02-20T15:44:59.339Z,81.30
2019-02-20T15:47:32.031Z,74.40
2019-02-20T15:50:04.418Z,72.40
2019-02-20T15:52:36.970Z,71.80
2019-02-20T15:55:11.427Z,67.40
2019-02-20T15:57:44.123Z,69.80
2019-02-20T16:00:20.040Z,69.00
2019-02-20T16:02:52.423Z,68.60
2019-02-20T16:05:25.111Z,71.70
2019-02-20T16:07:57.509Z,69.30
2019-02-20T16:10:30.287Z,69.70
2019-02-20T16:13:02.553Z,73.30
2019-02-20T16:15:35.628Z,71.90
2019-02-20T16:18:08.517Z,71.10
2019-02-20T16:20:41.097Z,70.10
2019-02-20T16:23:14.209Z,68.30
2019-02-20T16:25:46.909Z,69.90
2019-02-20T16:28:20.027Z,68.40
2019-02-20T16:30:52.464Z,69.70
2019-02-20T16:33:25.088Z,66.80
2019-02-20T16:35:57.650Z,64.40
2019-02-20T16:38:30.193Z,66.50
2019-02-20T16:41:04.616Z,70.60
2019-02-20T16:43:37.303Z,63.30
2019-02-20T16:46:10.194Z,66.40
2019-02-20T16:48:43.266Z,63.80
2019-02-20T16:51:16.239Z,61.60
2019-02-20T16:53:48.709Z,60.80
2019-02-20T16:56:21.217Z,58.60
2019-02-20T16:58:53.767Z,65.40
2019-02-20T17:01:26.782Z,58.80
2019-02-20T17:03:59.493Z,57.80
2019-02-20T17:06:32.147Z,57.60
2019-02-20T17:09:06.377Z,54.90
2019-02-20T17:11:39.460Z,54.50
2019-02-20T17:14:11.970Z,57.00
2019-02-20T17:16:45.387Z,53.90
2019-02-20T17:19:17.516Z,52.90
2019-02-20T17:21:50.569Z,53.20
2019-02-20T17:24:23.135Z,52.80
2019-02-20T17:26:56.265Z,53.60
2019-02-20T17:29:29.055Z,53.80
2019-02-20T17:32:02.243Z,52.70
2019-02-20T17:34:35.273Z,53.00
2019-02-20T17:37:08.101Z,53.10
2019-02-20T17:39:40.641Z,53.90
2019-02-20T17:42:13.391Z,52.90
2019-02-20T17:44:45.730Z,54.50
2019-02-20T17:47:18.426Z,57.50
2019-02-20T17:49:51.374Z,58.00
2019-02-20T17:52:24.351Z,57.50
2019-02-20T17:54:56.828Z,55.30
2019-02-20T17:57:29.444Z,51.80
2019-02-20T18:00:01.900Z,50.00
2019-02-20T18:02:35.065Z,49.20
2019-02-20T18:05:08.012Z,47.60
2019-02-20T18:07:48.784Z,48.70
2019-02-20T18:10:16.124Z,51.10
2019-02-20T18:12:48.515Z,53.10
2019-02-20T18:15:21.396Z,54.70
2019-02-20T18:17:54.170Z,55.30
2019-02-20T18:20:26.851Z,59.10
2019-02-20T18:22:59.969Z,60.20
2019-02-20T18:25:32.704Z,58.90
2019-02-20T18:28:06.503Z,59.50
2019-02-20T18:30:39.027Z,60.90
2019-02-20T18:33:12.021Z,57.90
2019-02-20T18:35:49.279Z,57.00
2019-02-20T18:38:21.831Z,52.80
2019-02-20T18:40:55.768Z,52.50
2019-02-20T18:43:28.843Z,54.30
2019-02-20T18:46:01.520Z,53.10
2019-02-20T18:48:34.241Z,51.60
2019-02-20T18:51:06.767Z,50.80
2019-02-20T18:53:39.480Z,50.70
2019-02-20T18:56:11.969Z,53.20
2019-02-20T18:58:44.553Z,54.50
2019-02-20T19:01:17.394Z,54.60
2019-02-20T19:03:50.417Z,55.20
2019-02-20T19:06:23.679Z,56.70
2019-02-20T19:09:15.485Z,54.70
2019-02-20T19:12:34.629Z,52.90
2019-02-20T19:15:55.124Z,53.60
2019-02-20T19:19:02.406Z,55.10
2019-02-20T19:22:21.600Z,56.30
2019-02-20T19:25:19.108Z,55.90
2019-02-20T19:28:10.538Z,57.30
2019-02-20T19:31:37.387Z,59.20
2019-02-20T19:34:40.733Z,56.80
2019-02-20T19:37:53.309Z,55.30
2019-02-20T19:41:07.436Z,55.20
2019-02-20T19:44:23.015Z,57.00
2019-02-20T19:47:41.060Z,55.50
2019-02-20T19:50:54.295Z,57.50
2019-02-20T19:53:52.892Z,60.00
2019-02-20T19:57:19.631Z,63.20
2019-02-20T20:00:36.148Z,65.40
2019-02-20T20:03:49.897Z,67.50
2019-02-20T20:07:07.257Z,67.30
2019-02-20T20:10:16.497Z,67.50
2019-02-20T20:13:43.783Z,67.70
2019-02-20T20:16:58.775Z,64.70
2019-02-20T20:19:48.077Z,63.90
2019-02-20T20:23:15.128Z,64.10
2019-02-20T20:26:38.160Z,65.60
2019-02-20T20:29:34.870Z,66.10
2019-02-20T20:32:53.797Z,68.30
2019-02-20T20:36:05.180Z,69.10
2019-02-20T20:39:03.497Z,68.50
2019-02-20T20:41:59.687Z,68.80
2019-02-20T20:44:42.837Z,71.10
2019-02-20T20:47:54.302Z,69.70
2019-02-20T20:51:03.593Z,69.90
2019-02-20T20:54:32.261Z,70.60
2019-02-20T20:57:59.059Z,71.10
2019-02-20T21:00:48.843Z,73.60
2019-02-20T21:03:22.199Z,74.50
2019-02-20T21:06:22.975Z,74.20
2019-02-20T21:09:19.488Z,74.60
2019-02-20T21:12:37.643Z,75.30
2019-02-20T21:15:27.242Z,72.20
2019-02-20T21:18:41.442Z,71.60
2019-02-20T21:21:28.507Z,71.00
2019-02-20T21:24:36.734Z,71.40
2019-02-20T21:27:28.654Z,72.00
2019-02-20T21:30:37.995Z,70.10
2019-02-20T21:33:51.068Z,71.40
2019-02-20T21:36:28.479Z,71.30
2019-02-20T21:39:38.894Z,71.90
2019-02-20T21:42:47.211Z,72.60
2019-02-20T21:46:10.949Z,73.50
2019-02-20T21:49:26.123Z,74.30
2019-02-20T21:52:35.511Z,74.40
2019-02-20T21:55:37.833Z,74.60
2019-02-20T21:58:43.610Z,74.30
2019-02-20T22:01:37.161Z,74.00
2019-02-20T22:04:35.035Z,74.10
2019-02-20T22:07:28.763Z,74.50
2019-02-20T22:10:42.866Z,74.60
2019-02-20T22:13:59.111Z,75.90
2019-02-20T22:17:09.633Z,75.30
2019-02-20T22:20:17.455Z,75.80
2019-02-20T22:23:21.539Z,76.60
2019-02-20T22:26:33.222Z,75.60
2019-02-20T22:29:53.097Z,77.00
2019-02-20T22:33:11.138Z,77.20
2019-02-20T22:36:29.492Z,77.20
2019-02-20T22:39:21.883Z,78.90
2019-02-20T22:42:40.102Z,79.30
2019-02-20T22:45:38.499Z,79.80
2019-02-20T22:48:43.949Z,81.20
2019-02-20T22:51:46.191Z,81.90
2019-02-20T22:54:51.785Z,83.30
2019-02-20T22:57:59.046Z,83.10
2019-02-20T23:01:05.957Z,84.60
2019-02-20T23:04:08.556Z,85.20
2019-02-20T23:07:14.193Z,86.20
2019-02-20T23:10:17.179Z,86.60
2019-02-20T23:13:04.693Z,87.50
2019-02-20T23:15:37.561Z,87.50
2019-02-20T23:18:10.376Z,87.50
2019-02-20T23:20:43.463Z,88.00
2019-02-20T23:23:16.730Z,86.60
2019-02-20T23:25:49.340Z,87.20
2019-02-20T23:28:21.682Z,86.30
2019-02-20T23:30:54.643Z,85.70
2019-02-20T23:33:27.408Z,86.30
2019-02-20T23:36:00.459Z,85.70
2019-02-20T23:38:32.671Z,85.60
2019-02-20T23:41:05.045Z,84.60
2019-02-20T23:43:37.886Z,86.50
2019-02-20T23:46:10.318Z,85.60
2019-02-20T23:48:42.872Z,86.10
2019-02-20T23:51:15.615Z,85.60
2019-02-20T23:53:48.123Z,85.90
2019-02-20T23:56:21.455Z,85.50
2019-02-20T23:58:54.485Z,85.90
